sensor_id;sensor_type;location;lat;lon;timestamp;temperature;humidity
56298;DHT22;42208;6.376;-10.782;2023-02-26T00:01:43;26.80;99.90
56298;DHT22;42208;6.376;-10.782;2023-02-26T00:04:12;26.80;99.90
56298;DHT22;42208;6.376;-10.782;2023-02-26T00:06:40;26.80;99.90
56298;DHT22;42208;6.376;-10.782;2023-02-26T00:09:09;26.80;99.90
56298;DHT22;42208;6.376;-10.782;2023-02-26T00:11:37;26.80;99.90
56298;DHT22;42208;6.376;-10.782;2023-02-26T00:14:11;26.80;99.90
56298;DHT22;42208;6.376;-10.782;2023-02-26T00:16:41;26.80;99.90
56298;DHT22;42208;6.376;-10.782;2023-02-26T00:19:12;26.80;99.90
56298;DHT22;42208;6.376;-10.782;2023-02-26T00:21:40;26.80;99.90
56298;DHT22;42208;6.376;-10.782;2023-02-26T00:24:09;26.80;99.90
56298;DHT22;42208;6.376;-10.782;2023-02-26T00:26:37;26.80;99.90
56298;DHT22;42208;6.376;-10.782;2023-02-26T00:29:06;26.80;99.90
56298;DHT22;42208;6.376;-10.782;2023-02-26T00:31:34;26.80;99.90
56298;DHT22;42208;6.376;-10.782;2023-02-26T00:34:03;26.80;99.90
56298;DHT22;42208;6.376;-10.782;2023-02-26T00:40:03;26.80;99.90
56298;DHT22;42208;6.376;-10.782;2023-02-26T00:42:23;26.80;99.90
56298;DHT22;42208;6.376;-10.782;2023-02-26T00:44:51;26.80;99.90
56298;DHT22;42208;6.376;-10.782;2023-02-26T00:50:06;26.70;99.90
56298;DHT22;42208;6.376;-10.782;2023-02-26T00:55:30;26.80;99.90
56298;DHT22;42208;6.376;-10.782;2023-02-26T00:57:58;26.80;99.90
56298;DHT22;42208;6.376;-10.782;2023-02-26T01:00:26;26.70;99.90
56298;DHT22;42208;6.376;-10.782;2023-02-26T01:02:56;26.70;99.90
56298;DHT22;42208;6.376;-10.782;2023-02-26T01:05:25;26.70;99.90
56298;DHT22;42208;6.376;-10.782;2023-02-26T01:08:25;26.70;99.90
56298;DHT22;42208;6.376;-10.782;2023-02-26T01:10:55;26.60;99.90
56298;DHT22;42208;6.376;-10.782;2023-02-26T01:13:23;26.60;99.90
56298;DHT22;42208;6.376;-10.782;2023-02-26T01:15:57;26.50;99.90
56298;DHT22;42208;6.376;-10.782;2023-02-26T01:19:19;26.60;99.90
56298;DHT22;42208;6.376;-10.782;2023-02-26T01:21:28;26.50;99.90
56298;DHT22;42208;6.376;-10.782;2023-02-26T01:24:01;26.50;99.90
56298;DHT22;42208;6.376;-10.782;2023-02-26T01:26:32;26.50;99.90
56298;DHT22;42208;6.376;-10.782;2023-02-26T01:29:00;26.50;99.90
56298;DHT22;42208;6.376;-10.782;2023-02-26T01:31:41;26.40;99.90
56298;DHT22;42208;6.376;-10.782;2023-02-26T01:40:12;26.40;99.90
56298;DHT22;42208;6.376;-10.782;2023-02-26T01:42:50;26.40;99.90
56298;DHT22;42208;6.376;-10.782;2023-02-26T01:45:23;26.40;99.90
56298;DHT22;42208;6.376;-10.782;2023-02-26T01:48:04;26.40;99.90
56298;DHT22;42208;6.376;-10.782;2023-02-26T01:50:35;26.40;99.90
56298;DHT22;42208;6.376;-10.782;2023-02-26T01:53:21;26.40;99.90
56298;DHT22;42208;6.376;-10.782;2023-02-26T01:56:12;26.40;99.90
56298;DHT22;42208;6.376;-10.782;2023-02-26T01:58:41;26.40;99.90
56298;DHT22;42208;6.376;-10.782;2023-02-26T02:01:12;26.40;99.90
56298;DHT22;42208;6.376;-10.782;2023-02-26T02:03:41;26.30;99.90
56298;DHT22;42208;6.376;-10.782;2023-02-26T02:06:21;26.30;99.90
56298;DHT22;42208;6.376;-10.782;2023-02-26T02:08:52;26.30;99.90
56298;DHT22;42208;6.376;-10.782;2023-02-26T02:11:22;26.30;99.90
56298;DHT22;42208;6.376;-10.782;2023-02-26T02:14:07;26.30;99.90
56298;DHT22;42208;6.376;-10.782;2023-02-26T02:17:43;26.30;99.90
56298;DHT22;42208;6.376;-10.782;2023-02-26T02:22:32;26.30;99.90
56298;DHT22;42208;6.376;-10.782;2023-02-26T02:28:01;26.30;99.90
56298;DHT22;42208;6.376;-10.782;2023-02-26T02:36:44;26.20;99.90
56298;DHT22;42208;6.376;-10.782;2023-02-26T02:39:18;26.20;99.90
56298;DHT22;42208;6.376;-10.782;2023-02-26T02:41:57;26.10;99.90
56298;DHT22;42208;6.376;-10.782;2023-02-26T02:44:28;26.10;99.90
56298;DHT22;42208;6.376;-10.782;2023-02-26T02:46:59;26.10;99.90
56298;DHT22;42208;6.376;-10.782;2023-02-26T02:49:33;26.10;99.90
56298;DHT22;42208;6.376;-10.782;2023-02-26T02:52:20;26.10;99.90
56298;DHT22;42208;6.376;-10.782;2023-02-26T02:55:16;26.00;99.90
56298;DHT22;42208;6.376;-10.782;2023-02-26T02:58:02;26.00;99.90
56298;DHT22;42208;6.376;-10.782;2023-02-26T03:00:35;26.00;99.90
56298;DHT22;42208;6.376;-10.782;2023-02-26T03:05:39;26.00;99.90
56298;DHT22;42208;6.376;-10.782;2023-02-26T03:08:12;26.00;99.90
56298;DHT22;42208;6.376;-10.782;2023-02-26T03:10:45;26.00;99.90
56298;DHT22;42208;6.376;-10.782;2023-02-26T03:13:21;25.90;99.90
56298;DHT22;42208;6.376;-10.782;2023-02-26T03:16:18;25.90;99.90
56298;DHT22;42208;6.376;-10.782;2023-02-26T03:19:21;25.90;99.90
56298;DHT22;42208;6.376;-10.782;2023-02-26T03:25:08;25.90;99.90
56298;DHT22;42208;6.376;-10.782;2023-02-26T03:30:29;25.90;99.90
56298;DHT22;42208;6.376;-10.782;2023-02-26T03:33:09;25.90;99.90
56298;DHT22;42208;6.376;-10.782;2023-02-26T03:36:05;25.80;99.90
56298;DHT22;42208;6.376;-10.782;2023-02-26T03:38:50;25.70;99.90
56298;DHT22;42208;6.376;-10.782;2023-02-26T03:41:30;25.80;99.90
56298;DHT22;42208;6.376;-10.782;2023-02-26T03:46:57;25.80;99.90
56298;DHT22;42208;6.376;-10.782;2023-02-26T03:49:40;25.80;99.90
56298;DHT22;42208;6.376;-10.782;2023-02-26T03:52:11;25.90;99.90
56298;DHT22;42208;6.376;-10.782;2023-02-26T03:57:52;25.90;99.90
56298;DHT22;42208;6.376;-10.782;2023-02-26T04:00:28;25.90;99.90
56298;DHT22;42208;6.376;-10.782;2023-02-26T04:03:11;25.90;99.90
56298;DHT22;42208;6.376;-10.782;2023-02-26T04:05:46;25.90;99.90
56298;DHT22;42208;6.376;-10.782;2023-02-26T04:08:16;25.90;99.90
56298;DHT22;42208;6.376;-10.782;2023-02-26T04:10:59;25.90;99.90
56298;DHT22;42208;6.376;-10.782;2023-02-26T04:13:32;25.90;99.90
56298;DHT22;42208;6.376;-10.782;2023-02-26T04:16:01;25.90;99.90
56298;DHT22;42208;6.376;-10.782;2023-02-26T04:18:29;25.90;99.90
56298;DHT22;42208;6.376;-10.782;2023-02-26T04:20:58;25.90;99.90
56298;DHT22;42208;6.376;-10.782;2023-02-26T04:23:26;25.80;99.90
56298;DHT22;42208;6.376;-10.782;2023-02-26T04:25:56;25.90;99.90
56298;DHT22;42208;6.376;-10.782;2023-02-26T04:28:25;25.90;99.90
56298;DHT22;42208;6.376;-10.782;2023-02-26T04:30:53;25.90;99.90
56298;DHT22;42208;6.376;-10.782;2023-02-26T04:33:22;25.90;99.90
56298;DHT22;42208;6.376;-10.782;2023-02-26T04:35:50;25.80;99.90
56298;DHT22;42208;6.376;-10.782;2023-02-26T04:38:19;25.80;99.90
56298;DHT22;42208;6.376;-10.782;2023-02-26T04:40:49;25.80;99.90
56298;DHT22;42208;6.376;-10.782;2023-02-26T04:43:18;25.80;99.90
56298;DHT22;42208;6.376;-10.782;2023-02-26T04:46:06;25.80;99.90
56298;DHT22;42208;6.376;-10.782;2023-02-26T04:48:35;25.80;99.90
56298;DHT22;42208;6.376;-10.782;2023-02-26T04:51:04;25.80;99.90
56298;DHT22;42208;6.376;-10.782;2023-02-26T04:53:33;25.80;99.90
56298;DHT22;42208;6.376;-10.782;2023-02-26T04:56:01;25.70;99.90
56298;DHT22;42208;6.376;-10.782;2023-02-26T04:58:29;25.70;99.90
56298;DHT22;42208;6.376;-10.782;2023-02-26T05:01:03;25.70;99.90
56298;DHT22;42208;6.376;-10.782;2023-02-26T05:03:32;25.80;99.90
56298;DHT22;42208;6.376;-10.782;2023-02-26T05:06:01;25.80;99.90
56298;DHT22;42208;6.376;-10.782;2023-02-26T05:08:29;25.80;99.90
56298;DHT22;42208;6.376;-10.782;2023-02-26T05:10:58;25.80;99.90
56298;DHT22;42208;6.376;-10.782;2023-02-26T05:13:26;25.80;99.90
56298;DHT22;42208;6.376;-10.782;2023-02-26T05:15:55;25.80;99.90
56298;DHT22;42208;6.376;-10.782;2023-02-26T05:18:23;25.80;99.90
56298;DHT22;42208;6.376;-10.782;2023-02-26T05:20:55;25.80;99.90
56298;DHT22;42208;6.376;-10.782;2023-02-26T05:23:24;25.70;99.90
56298;DHT22;42208;6.376;-10.782;2023-02-26T05:25:57;25.70;99.90
56298;DHT22;42208;6.376;-10.782;2023-02-26T05:28:26;25.70;99.90
56298;DHT22;42208;6.376;-10.782;2023-02-26T05:30:56;25.70;99.90
56298;DHT22;42208;6.376;-10.782;2023-02-26T05:33:25;25.60;99.90
56298;DHT22;42208;6.376;-10.782;2023-02-26T05:35:53;25.70;99.90
56298;DHT22;42208;6.376;-10.782;2023-02-26T05:38:22;25.60;99.90
56298;DHT22;42208;6.376;-10.782;2023-02-26T05:40:50;25.60;99.90
56298;DHT22;42208;6.376;-10.782;2023-02-26T05:43:18;25.70;99.90
56298;DHT22;42208;6.376;-10.782;2023-02-26T05:45:49;25.70;99.90
56298;DHT22;42208;6.376;-10.782;2023-02-26T05:48:17;25.60;99.90
56298;DHT22;42208;6.376;-10.782;2023-02-26T05:50:47;25.60;99.90
56298;DHT22;42208;6.376;-10.782;2023-02-26T05:53:16;25.60;99.90
56298;DHT22;42208;6.376;-10.782;2023-02-26T05:55:44;25.60;99.90
56298;DHT22;42208;6.376;-10.782;2023-02-26T05:58:12;25.60;99.90
56298;DHT22;42208;6.376;-10.782;2023-02-26T06:00:41;25.50;99.90
56298;DHT22;42208;6.376;-10.782;2023-02-26T06:03:09;25.50;99.90
56298;DHT22;42208;6.376;-10.782;2023-02-26T06:05:37;25.50;99.90
56298;DHT22;42208;6.376;-10.782;2023-02-26T06:08:06;25.50;99.90
56298;DHT22;42208;6.376;-10.782;2023-02-26T06:10:34;25.40;99.90
56298;DHT22;42208;6.376;-10.782;2023-02-26T06:13:02;25.30;99.90
56298;DHT22;42208;6.376;-10.782;2023-02-26T06:15:31;25.40;99.90
56298;DHT22;42208;6.376;-10.782;2023-02-26T06:17:59;25.40;99.90
56298;DHT22;42208;6.376;-10.782;2023-02-26T06:20:27;25.40;99.90
56298;DHT22;42208;6.376;-10.782;2023-02-26T06:22:56;25.40;99.90
56298;DHT22;42208;6.376;-10.782;2023-02-26T06:25:24;25.40;99.90
56298;DHT22;42208;6.376;-10.782;2023-02-26T06:27:53;25.40;99.90
56298;DHT22;42208;6.376;-10.782;2023-02-26T06:30:21;25.40;99.90
56298;DHT22;42208;6.376;-10.782;2023-02-26T06:32:49;25.40;99.90
56298;DHT22;42208;6.376;-10.782;2023-02-26T06:35:18;25.50;99.90
56298;DHT22;42208;6.376;-10.782;2023-02-26T06:37:46;25.40;99.90
56298;DHT22;42208;6.376;-10.782;2023-02-26T06:40:14;25.50;99.90
56298;DHT22;42208;6.376;-10.782;2023-02-26T06:42:43;25.50;99.90
56298;DHT22;42208;6.376;-10.782;2023-02-26T06:45:11;25.50;99.90
56298;DHT22;42208;6.376;-10.782;2023-02-26T06:47:39;25.50;99.90
56298;DHT22;42208;6.376;-10.782;2023-02-26T06:50:08;25.60;99.90
56298;DHT22;42208;6.376;-10.782;2023-02-26T06:52:37;25.60;99.90
56298;DHT22;42208;6.376;-10.782;2023-02-26T06:55:05;25.60;99.90
56298;DHT22;42208;6.376;-10.782;2023-02-26T06:57:34;25.50;99.90
56298;DHT22;42208;6.376;-10.782;2023-02-26T07:00:04;25.50;99.90
56298;DHT22;42208;6.376;-10.782;2023-02-26T07:02:33;25.50;99.90
56298;DHT22;42208;6.376;-10.782;2023-02-26T07:05:01;25.50;99.90
56298;DHT22;42208;6.376;-10.782;2023-02-26T07:07:29;25.50;99.90
56298;DHT22;42208;6.376;-10.782;2023-02-26T07:09:58;25.50;99.90
56298;DHT22;42208;6.376;-10.782;2023-02-26T07:12:26;25.50;99.90
56298;DHT22;42208;6.376;-10.782;2023-02-26T07:14:54;25.50;99.90
56298;DHT22;42208;6.376;-10.782;2023-02-26T07:17:22;25.50;99.90
56298;DHT22;42208;6.376;-10.782;2023-02-26T07:19:51;25.50;99.90
56298;DHT22;42208;6.376;-10.782;2023-02-26T07:22:20;25.50;99.90
56298;DHT22;42208;6.376;-10.782;2023-02-26T07:24:49;25.50;99.90
56298;DHT22;42208;6.376;-10.782;2023-02-26T07:27:17;25.50;99.90
56298;DHT22;42208;6.376;-10.782;2023-02-26T07:29:45;25.60;99.90
56298;DHT22;42208;6.376;-10.782;2023-02-26T07:32:13;25.60;99.90
56298;DHT22;42208;6.376;-10.782;2023-02-26T07:34:42;25.60;99.90
56298;DHT22;42208;6.376;-10.782;2023-02-26T07:37:10;25.60;99.90
56298;DHT22;42208;6.376;-10.782;2023-02-26T07:39:38;25.60;99.90
56298;DHT22;42208;6.376;-10.782;2023-02-26T07:42:06;25.60;99.90
56298;DHT22;42208;6.376;-10.782;2023-02-26T07:44:35;25.60;99.90
56298;DHT22;42208;6.376;-10.782;2023-02-26T07:47:03;25.60;99.90
56298;DHT22;42208;6.376;-10.782;2023-02-26T07:49:31;25.60;99.90
56298;DHT22;42208;6.376;-10.782;2023-02-26T07:52:00;25.60;99.90
56298;DHT22;42208;6.376;-10.782;2023-02-26T07:54:29;25.60;99.90
56298;DHT22;42208;6.376;-10.782;2023-02-26T07:56:57;25.70;99.90
56298;DHT22;42208;6.376;-10.782;2023-02-26T07:59:26;25.70;99.90
56298;DHT22;42208;6.376;-10.782;2023-02-26T08:01:54;25.70;99.90
56298;DHT22;42208;6.376;-10.782;2023-02-26T08:04:23;25.70;99.90
56298;DHT22;42208;6.376;-10.782;2023-02-26T08:06:51;25.70;99.90
56298;DHT22;42208;6.376;-10.782;2023-02-26T08:09:20;25.80;99.90
56298;DHT22;42208;6.376;-10.782;2023-02-26T08:11:48;25.80;99.90
56298;DHT22;42208;6.376;-10.782;2023-02-26T08:14:17;25.80;99.90
56298;DHT22;42208;6.376;-10.782;2023-02-26T08:16:45;25.80;99.90
56298;DHT22;42208;6.376;-10.782;2023-02-26T08:19:14;25.80;99.90
56298;DHT22;42208;6.376;-10.782;2023-02-26T08:21:42;25.90;99.90
56298;DHT22;42208;6.376;-10.782;2023-02-26T08:24:11;25.90;99.90
56298;DHT22;42208;6.376;-10.782;2023-02-26T08:26:39;26.00;99.90
56298;DHT22;42208;6.376;-10.782;2023-02-26T08:29:07;26.00;99.90
56298;DHT22;42208;6.376;-10.782;2023-02-26T08:31:36;26.00;99.90
56298;DHT22;42208;6.376;-10.782;2023-02-26T08:34:05;26.00;99.90
56298;DHT22;42208;6.376;-10.782;2023-02-26T08:36:33;26.00;99.90
56298;DHT22;42208;6.376;-10.782;2023-02-26T08:39:02;26.00;99.90
56298;DHT22;42208;6.376;-10.782;2023-02-26T08:41:30;26.00;99.90
56298;DHT22;42208;6.376;-10.782;2023-02-26T08:43:59;26.10;99.90
56298;DHT22;42208;6.376;-10.782;2023-02-26T08:46:27;26.10;99.90
56298;DHT22;42208;6.376;-10.782;2023-02-26T08:48:56;26.20;99.90
56298;DHT22;42208;6.376;-10.782;2023-02-26T08:51:25;26.30;99.90
56298;DHT22;42208;6.376;-10.782;2023-02-26T08:53:54;26.30;99.90
56298;DHT22;42208;6.376;-10.782;2023-02-26T08:56:22;26.30;99.90
56298;DHT22;42208;6.376;-10.782;2023-02-26T08:58:51;26.40;99.90
56298;DHT22;42208;6.376;-10.782;2023-02-26T09:01:20;26.40;99.90
56298;DHT22;42208;6.376;-10.782;2023-02-26T09:03:48;26.50;99.90
56298;DHT22;42208;6.376;-10.782;2023-02-26T09:06:16;26.50;99.90
56298;DHT22;42208;6.376;-10.782;2023-02-26T09:08:44;26.50;99.90
56298;DHT22;42208;6.376;-10.782;2023-02-26T09:11:13;26.60;99.90
56298;DHT22;42208;6.376;-10.782;2023-02-26T09:13:42;26.70;99.90
56298;DHT22;42208;6.376;-10.782;2023-02-26T09:16:10;26.70;99.90
56298;DHT22;42208;6.376;-10.782;2023-02-26T09:18:38;26.70;99.90
56298;DHT22;42208;6.376;-10.782;2023-02-26T09:21:10;26.70;99.90
56298;DHT22;42208;6.376;-10.782;2023-02-26T09:23:38;26.80;99.90
56298;DHT22;42208;6.376;-10.782;2023-02-26T09:26:06;26.80;99.90
56298;DHT22;42208;6.376;-10.782;2023-02-26T09:28:35;26.90;99.90
56298;DHT22;42208;6.376;-10.782;2023-02-26T09:31:03;26.90;99.90
56298;DHT22;42208;6.376;-10.782;2023-02-26T09:33:32;27.00;99.90
56298;DHT22;42208;6.376;-10.782;2023-02-26T09:36:01;27.10;99.90
56298;DHT22;42208;6.376;-10.782;2023-02-26T09:38:30;27.10;99.90
56298;DHT22;42208;6.376;-10.782;2023-02-26T09:41:08;27.20;99.90
56298;DHT22;42208;6.376;-10.782;2023-02-26T09:46:53;27.30;99.90
56298;DHT22;42208;6.376;-10.782;2023-02-26T09:49:50;27.40;99.90
56298;DHT22;42208;6.376;-10.782;2023-02-26T09:52:31;27.50;99.90
56298;DHT22;42208;6.376;-10.782;2023-02-26T09:55:10;27.50;99.90
56298;DHT22;42208;6.376;-10.782;2023-02-26T09:57:44;27.50;99.90
56298;DHT22;42208;6.376;-10.782;2023-02-26T10:00:40;27.50;99.90
56298;DHT22;42208;6.376;-10.782;2023-02-26T10:03:29;27.60;99.90
56298;DHT22;42208;6.376;-10.782;2023-02-26T10:08:50;27.70;99.90
56298;DHT22;42208;6.376;-10.782;2023-02-26T10:11:28;27.80;99.90
56298;DHT22;42208;6.376;-10.782;2023-02-26T10:14:31;27.90;99.90
56298;DHT22;42208;6.376;-10.782;2023-02-26T10:17:11;28.00;99.90
56298;DHT22;42208;6.376;-10.782;2023-02-26T10:19:46;28.10;99.90
56298;DHT22;42208;6.376;-10.782;2023-02-26T10:22:32;28.20;99.90
56298;DHT22;42208;6.376;-10.782;2023-02-26T10:25:24;28.20;99.90
56298;DHT22;42208;6.376;-10.782;2023-02-26T10:30:58;28.20;99.90
56298;DHT22;42208;6.376;-10.782;2023-02-26T10:38:43;28.40;99.90
56298;DHT22;42208;6.376;-10.782;2023-02-26T10:41:19;28.40;99.90
56298;DHT22;42208;6.376;-10.782;2023-02-26T10:50:04;28.50;99.90
56298;DHT22;42208;6.376;-10.782;2023-02-26T10:52:33;28.60;99.90
56298;DHT22;42208;6.376;-10.782;2023-02-26T10:58:10;28.70;99.90
56298;DHT22;42208;6.376;-10.782;2023-02-26T11:00:42;28.60;99.90
56298;DHT22;42208;6.376;-10.782;2023-02-26T11:03:23;28.70;99.90
56298;DHT22;42208;6.376;-10.782;2023-02-26T11:05:54;28.70;99.90
56298;DHT22;42208;6.376;-10.782;2023-02-26T11:08:27;28.70;99.90
56298;DHT22;42208;6.376;-10.782;2023-02-26T11:11:03;28.70;99.90
56298;DHT22;42208;6.376;-10.782;2023-02-26T11:13:33;28.60;99.90
56298;DHT22;42208;6.376;-10.782;2023-02-26T11:16:08;28.70;99.90
56298;DHT22;42208;6.376;-10.782;2023-02-26T11:33:27;28.90;99.90
56298;DHT22;42208;6.376;-10.782;2023-02-26T11:36:10;29.10;99.90
56298;DHT22;42208;6.376;-10.782;2023-02-26T11:38:40;29.10;99.90
56298;DHT22;42208;6.376;-10.782;2023-02-26T11:41:12;29.00;99.90
56298;DHT22;42208;6.376;-10.782;2023-02-26T11:43:47;28.90;99.90
56298;DHT22;42208;6.376;-10.782;2023-02-26T11:46:16;29.10;99.90
56298;DHT22;42208;6.376;-10.782;2023-02-26T11:48:48;29.00;99.90
56298;DHT22;42208;6.376;-10.782;2023-02-26T11:51:23;29.10;99.90
56298;DHT22;42208;6.376;-10.782;2023-02-26T11:53:57;29.20;99.90
56298;DHT22;42208;6.376;-10.782;2023-02-26T11:56:31;29.30;99.90
56298;DHT22;42208;6.376;-10.782;2023-02-26T11:59:16;29.20;99.90
56298;DHT22;42208;6.376;-10.782;2023-02-26T12:01:44;29.10;99.90
56298;DHT22;42208;6.376;-10.782;2023-02-26T12:04:18;29.20;99.90
56298;DHT22;42208;6.376;-10.782;2023-02-26T12:06:53;29.20;99.90
56298;DHT22;42208;6.376;-10.782;2023-02-26T12:09:21;29.20;99.90
56298;DHT22;42208;6.376;-10.782;2023-02-26T12:15:08;29.10;99.90
56298;DHT22;42208;6.376;-10.782;2023-02-26T12:21:06;29.10;99.90
56298;DHT22;42208;6.376;-10.782;2023-02-26T12:27:49;28.90;99.90
56298;DHT22;42208;6.376;-10.782;2023-02-26T12:30:21;29.10;99.90
56298;DHT22;42208;6.376;-10.782;2023-02-26T12:35:44;29.20;99.90
56298;DHT22;42208;6.376;-10.782;2023-02-26T12:43:49;29.50;99.90
56298;DHT22;42208;6.376;-10.782;2023-02-26T12:52:22;29.10;99.90
56298;DHT22;42208;6.376;-10.782;2023-02-26T12:57:49;29.10;99.90
56298;DHT22;42208;6.376;-10.782;2023-02-26T13:08:51;29.60;99.90
56298;DHT22;42208;6.376;-10.782;2023-02-26T13:14:20;29.40;99.90
56298;DHT22;42208;6.376;-10.782;2023-02-26T13:19:51;29.30;99.90
56298;DHT22;42208;6.376;-10.782;2023-02-26T13:22:34;29.10;99.90
56298;DHT22;42208;6.376;-10.782;2023-02-26T13:25:05;29.30;99.90
56298;DHT22;42208;6.376;-10.782;2023-02-26T13:27:42;29.40;99.90
56298;DHT22;42208;6.376;-10.782;2023-02-26T13:30:25;29.30;99.90
56298;DHT22;42208;6.376;-10.782;2023-02-26T13:32:57;29.30;99.90
56298;DHT22;42208;6.376;-10.782;2023-02-26T13:35:33;29.50;99.90
56298;DHT22;42208;6.376;-10.782;2023-02-26T13:38:19;29.50;99.90
56298;DHT22;42208;6.376;-10.782;2023-02-26T13:49:23;29.90;99.90
56298;DHT22;42208;6.376;-10.782;2023-02-26T13:51:54;29.80;99.90
56298;DHT22;42208;6.376;-10.782;2023-02-26T13:54:33;29.60;99.90
56298;DHT22;42208;6.376;-10.782;2023-02-26T13:57:07;29.60;99.90
56298;DHT22;42208;6.376;-10.782;2023-02-26T14:10:58;29.70;99.90
56298;DHT22;42208;6.376;-10.782;2023-02-26T14:16:39;29.80;99.90
56298;DHT22;42208;6.376;-10.782;2023-02-26T14:21:54;29.70;99.90
56298;DHT22;42208;6.376;-10.782;2023-02-26T18:48:18;27.50;99.90
56298;DHT22;42208;6.376;-10.782;2023-02-26T18:50:47;27.50;99.90
56298;DHT22;42208;6.376;-10.782;2023-02-26T18:53:16;27.50;99.90
56298;DHT22;42208;6.376;-10.782;2023-02-26T18:55:44;27.50;99.90
56298;DHT22;42208;6.376;-10.782;2023-02-26T18:58:12;27.50;99.90
56298;DHT22;42208;6.376;-10.782;2023-02-26T19:00:42;27.40;99.90
56298;DHT22;42208;6.376;-10.782;2023-02-26T19:03:11;27.40;99.90
56298;DHT22;42208;6.376;-10.782;2023-02-26T19:05:39;27.30;99.90
56298;DHT22;42208;6.376;-10.782;2023-02-26T19:08:08;27.30;99.90
56298;DHT22;42208;6.376;-10.782;2023-02-26T19:10:36;27.30;99.90
56298;DHT22;42208;6.376;-10.782;2023-02-26T19:13:05;27.30;99.90
56298;DHT22;42208;6.376;-10.782;2023-02-26T19:15:33;27.30;99.90
56298;DHT22;42208;6.376;-10.782;2023-02-26T19:18:02;27.30;99.90
56298;DHT22;42208;6.376;-10.782;2023-02-26T19:20:30;27.30;99.90
56298;DHT22;42208;6.376;-10.782;2023-02-26T19:22:58;27.30;99.90
56298;DHT22;42208;6.376;-10.782;2023-02-26T19:25:27;27.40;99.90
56298;DHT22;42208;6.376;-10.782;2023-02-26T19:27:55;27.40;99.90
56298;DHT22;42208;6.376;-10.782;2023-02-26T19:30:24;27.40;99.90
56298;DHT22;42208;6.376;-10.782;2023-02-26T19:32:53;27.30;99.90
56298;DHT22;42208;6.376;-10.782;2023-02-26T19:35:22;27.20;99.90
56298;DHT22;42208;6.376;-10.782;2023-02-26T19:37:50;27.20;99.90
56298;DHT22;42208;6.376;-10.782;2023-02-26T19:40:19;27.20;99.90
56298;DHT22;42208;6.376;-10.782;2023-02-26T19:42:47;27.20;99.90
56298;DHT22;42208;6.376;-10.782;2023-02-26T19:45:16;27.20;99.90
56298;DHT22;42208;6.376;-10.782;2023-02-26T19:47:44;27.20;99.90
56298;DHT22;42208;6.376;-10.782;2023-02-26T19:50:13;27.20;99.90
56298;DHT22;42208;6.376;-10.782;2023-02-26T19:52:41;27.20;99.90
56298;DHT22;42208;6.376;-10.782;2023-02-26T19:55:10;27.20;99.90
56298;DHT22;42208;6.376;-10.782;2023-02-26T19:57:38;27.10;99.90
56298;DHT22;42208;6.376;-10.782;2023-02-26T20:01:32;27.10;99.90
56298;DHT22;42208;6.376;-10.782;2023-02-26T20:04:01;27.10;99.90
56298;DHT22;42208;6.376;-10.782;2023-02-26T20:06:30;27.20;99.90
56298;DHT22;42208;6.376;-10.782;2023-02-26T20:08:58;27.20;99.90
56298;DHT22;42208;6.376;-10.782;2023-02-26T20:11:27;27.10;99.90
56298;DHT22;42208;6.376;-10.782;2023-02-26T20:13:55;27.10;99.90
56298;DHT22;42208;6.376;-10.782;2023-02-26T20:16:24;27.10;99.90
56298;DHT22;42208;6.376;-10.782;2023-02-26T20:18:52;27.10;99.90
56298;DHT22;42208;6.376;-10.782;2023-02-26T20:21:21;27.10;99.90
56298;DHT22;42208;6.376;-10.782;2023-02-26T20:23:49;27.10;99.90
56298;DHT22;42208;6.376;-10.782;2023-02-26T20:26:17;27.10;99.90
56298;DHT22;42208;6.376;-10.782;2023-02-26T20:28:46;27.10;99.90
56298;DHT22;42208;6.376;-10.782;2023-02-26T20:31:15;27.00;99.90
56298;DHT22;42208;6.376;-10.782;2023-02-26T20:33:43;27.10;99.90
56298;DHT22;42208;6.376;-10.782;2023-02-26T20:36:12;27.10;99.90
56298;DHT22;42208;6.376;-10.782;2023-02-26T20:38:40;27.10;99.90
56298;DHT22;42208;6.376;-10.782;2023-02-26T20:41:09;27.10;99.90
56298;DHT22;42208;6.376;-10.782;2023-02-26T20:43:37;27.00;99.90
56298;DHT22;42208;6.376;-10.782;2023-02-26T20:46:06;27.00;99.90
56298;DHT22;42208;6.376;-10.782;2023-02-26T20:48:34;27.10;99.90
56298;DHT22;42208;6.376;-10.782;2023-02-26T20:51:04;27.10;99.90
56298;DHT22;42208;6.376;-10.782;2023-02-26T20:53:33;27.10;99.90
56298;DHT22;42208;6.376;-10.782;2023-02-26T20:56:01;27.10;99.90
56298;DHT22;42208;6.376;-10.782;2023-02-26T20:58:30;27.10;99.90
56298;DHT22;42208;6.376;-10.782;2023-02-26T21:00:58;27.10;99.90
56298;DHT22;42208;6.376;-10.782;2023-02-26T21:03:27;27.10;99.90
56298;DHT22;42208;6.376;-10.782;2023-02-26T21:05:55;27.10;99.90
56298;DHT22;42208;6.376;-10.782;2023-02-26T21:08:24;27.10;99.90
56298;DHT22;42208;6.376;-10.782;2023-02-26T21:10:52;27.00;99.90
56298;DHT22;42208;6.376;-10.782;2023-02-26T21:13:20;27.00;99.90
56298;DHT22;42208;6.376;-10.782;2023-02-26T21:15:49;27.00;99.90
56298;DHT22;42208;6.376;-10.782;2023-02-26T21:18:17;27.00;99.90
56298;DHT22;42208;6.376;-10.782;2023-02-26T21:20:48;27.00;99.90
56298;DHT22;42208;6.376;-10.782;2023-02-26T21:23:16;27.00;99.90
56298;DHT22;42208;6.376;-10.782;2023-02-26T21:25:45;27.00;99.90
56298;DHT22;42208;6.376;-10.782;2023-02-26T21:28:13;27.00;99.90
56298;DHT22;42208;6.376;-10.782;2023-02-26T21:30:41;27.00;99.90
56298;DHT22;42208;6.376;-10.782;2023-02-26T21:33:10;27.00;99.90
56298;DHT22;42208;6.376;-10.782;2023-02-26T21:35:38;27.00;99.90
56298;DHT22;42208;6.376;-10.782;2023-02-26T21:38:06;27.00;99.90
56298;DHT22;42208;6.376;-10.782;2023-02-26T21:40:35;27.00;99.90
56298;DHT22;42208;6.376;-10.782;2023-02-26T21:43:03;27.00;99.90
56298;DHT22;42208;6.376;-10.782;2023-02-26T21:45:32;27.00;99.90
56298;DHT22;42208;6.376;-10.782;2023-02-26T21:48:00;27.00;99.90
56298;DHT22;42208;6.376;-10.782;2023-02-26T21:50:29;27.00;99.90
56298;DHT22;42208;6.376;-10.782;2023-02-26T21:52:57;27.00;99.90
56298;DHT22;42208;6.376;-10.782;2023-02-26T21:55:26;27.00;99.90
56298;DHT22;42208;6.376;-10.782;2023-02-26T21:57:54;26.90;99.90
56298;DHT22;42208;6.376;-10.782;2023-02-26T22:00:23;26.90;99.90
56298;DHT22;42208;6.376;-10.782;2023-02-26T22:02:51;27.00;99.90
56298;DHT22;42208;6.376;-10.782;2023-02-26T22:05:19;26.90;99.90
56298;DHT22;42208;6.376;-10.782;2023-02-26T22:07:48;26.90;99.90
56298;DHT22;42208;6.376;-10.782;2023-02-26T22:10:16;26.90;99.90
56298;DHT22;42208;6.376;-10.782;2023-02-26T22:12:44;26.90;99.90
56298;DHT22;42208;6.376;-10.782;2023-02-26T22:15:13;26.90;99.90
56298;DHT22;42208;6.376;-10.782;2023-02-26T22:17:41;26.90;99.90
56298;DHT22;42208;6.376;-10.782;2023-02-26T22:20:13;27.00;99.90
56298;DHT22;42208;6.376;-10.782;2023-02-26T22:22:41;26.90;99.90
56298;DHT22;42208;6.376;-10.782;2023-02-26T22:25:10;26.90;99.90
56298;DHT22;42208;6.376;-10.782;2023-02-26T22:27:40;27.00;99.90
56298;DHT22;42208;6.376;-10.782;2023-02-26T22:30:09;27.00;99.90
56298;DHT22;42208;6.376;-10.782;2023-02-26T22:32:37;26.90;99.90
56298;DHT22;42208;6.376;-10.782;2023-02-26T22:35:06;27.00;99.90